createdAt,value
2022-12-03T00:00:35.340Z,14.80
2022-12-03T00:01:38.410Z,14.88
2022-12-03T00:02:40.601Z,13.25
2022-12-03T00:03:43.966Z,14.10
2022-12-03T00:04:47.373Z,15.45
2022-12-03T00:05:50.372Z,13.63
2022-12-03T00:06:52.542Z,14.95
2022-12-03T00:07:55.564Z,14.35
2022-12-03T00:08:57.752Z,13.20
2022-12-03T00:10:00.716Z,13.95
2022-12-03T00:11:03.644Z,13.32
2022-12-03T00:12:05.935Z,14.82
2022-12-03T00:13:08.852Z,16.58
2022-12-03T00:14:11.049Z,16.23
2022-12-03T00:15:14.020Z,16.13
2022-12-03T00:16:16.051Z,13.90
2022-12-03T00:17:19.004Z,15.18
2022-12-03T00:18:21.008Z,15.48
2022-12-03T00:19:23.987Z,16.55
2022-12-03T00:20:27.333Z,15.18
2022-12-03T00:21:30.296Z,12.80
2022-12-03T00:22:32.301Z,14.82
2022-12-03T00:23:40.278Z,14.50
2022-12-03T00:24:43.845Z,14.25
2022-12-03T00:25:46.747Z,15.35
2022-12-03T00:26:48.740Z,14.52
2022-12-03T00:27:51.673Z,14.75
2022-12-03T00:28:54.740Z,13.75
2022-12-03T00:29:57.699Z,12.82
2022-12-03T00:30:59.790Z,13.98
2022-12-03T00:32:02.723Z,13.80
2022-12-03T00:33:04.880Z,13.75
2022-12-03T00:34:07.856Z,14.10
2022-12-03T00:35:10.499Z,14.88
2022-12-03T00:36:14.823Z,14.52
2022-12-03T00:37:16.767Z,14.50
2022-12-03T00:38:19.784Z,14.05
2022-12-03T00:39:21.721Z,15.18
2022-12-03T00:40:24.924Z,13.48
2022-12-03T00:41:26.925Z,14.75
2022-12-03T00:42:29.891Z,13.82
2022-12-03T00:43:31.892Z,13.95
2022-12-03T00:44:35.081Z,14.75
2022-12-03T00:45:37.099Z,15.25
2022-12-03T00:46:40.141Z,14.77
2022-12-03T00:47:42.160Z,12.98
2022-12-03T00:48:45.139Z,13.95
2022-12-03T00:49:47.111Z,14.50
2022-12-03T00:50:50.122Z,15.02
2022-12-03T00:51:53.513Z,13.50
2022-12-03T00:52:56.487Z,13.93
2022-12-03T00:53:58.535Z,14.40
2022-12-03T00:55:01.464Z,13.80
2022-12-03T00:56:03.391Z,14.60
2022-12-03T00:57:06.417Z,13.20
2022-12-03T00:58:09.483Z,14.18
2022-12-03T00:59:12.426Z,13.60
2022-12-03T01:00:15.303Z,14.25
2022-12-03T01:01:18.308Z,13.63
2022-12-03T01:02:20.431Z,14.45
2022-12-03T01:03:23.477Z,14.07
2022-12-03T01:04:25.553Z,12.68
2022-12-03T01:05:28.596Z,14.35
2022-12-03T01:06:30.506Z,14.20
2022-12-03T01:07:34.870Z,14.82
2022-12-03T01:08:36.848Z,13.82
2022-12-03T01:09:39.852Z,14.25
2022-12-03T01:10:41.833Z,14.15
2022-12-03T01:11:44.915Z,14.98
2022-12-03T01:12:46.921Z,14.55
2022-12-03T01:13:49.892Z,13.23
2022-12-03T01:14:52.271Z,14.25
2022-12-03T01:15:55.515Z,13.65
2022-12-03T01:16:57.491Z,14.88
2022-12-03T01:18:00.388Z,13.70
2022-12-03T01:19:03.029Z,13.88
2022-12-03T01:20:07.650Z,14.35
2022-12-03T01:21:09.587Z,13.80
2022-12-03T01:22:12.601Z,13.68
2022-12-03T01:23:15.941Z,14.40
2022-12-03T01:24:20.120Z,13.50
2022-12-03T01:25:22.117Z,15.68
2022-12-03T01:26:25.398Z,13.85
2022-12-03T01:27:27.407Z,13.25
2022-12-03T01:28:31.518Z,14.25
2022-12-03T01:29:33.472Z,14.57
2022-12-03T01:30:56.669Z,13.98
2022-12-03T01:32:16.689Z,15.13
2022-12-03T01:33:18.602Z,13.02
2022-12-03T01:34:20.572Z,12.57
2022-12-03T01:35:23.455Z,14.07
2022-12-03T01:36:25.483Z,13.65
2022-12-03T01:37:29.049Z,14.00
2022-12-03T01:38:32.409Z,16.05
2022-12-03T01:39:35.366Z,13.88
2022-12-03T01:40:37.336Z,13.88
2022-12-03T01:41:41.015Z,13.27
2022-12-03T01:42:43.835Z,13.30
2022-12-03T01:43:47.509Z,14.68
2022-12-03T01:44:51.880Z,14.07
2022-12-03T01:45:55.143Z,15.05
2022-12-03T01:46:59.905Z,13.60
2022-12-03T01:48:03.012Z,14.32
2022-12-03T01:49:05.208Z,12.63
2022-12-03T01:50:15.323Z,15.35
2022-12-03T01:51:17.597Z,14.45
2022-12-03T01:52:25.569Z,14.52
2022-12-03T01:53:27.532Z,13.57
2022-12-03T01:54:37.960Z,15.63
2022-12-03T01:55:40.296Z,14.05
2022-12-03T01:56:43.347Z,15.45
2022-12-03T01:57:47.942Z,13.98
2022-12-03T01:58:51.333Z,15.27
2022-12-03T01:59:55.549Z,15.90
2022-12-03T02:01:00.120Z,14.57
2022-12-03T02:02:11.550Z,14.40
2022-12-03T02:03:20.260Z,14.80
2022-12-03T02:04:23.320Z,13.45
2022-12-03T02:05:28.222Z,14.73
2022-12-03T02:06:30.599Z,14.30
2022-12-03T02:07:34.963Z,14.90
2022-12-03T02:08:39.115Z,14.70
2022-12-03T02:09:43.475Z,15.40
2022-12-03T02:10:45.449Z,13.75
2022-12-03T02:11:51.119Z,13.80
2022-12-03T02:12:57.196Z,15.98
2022-12-03T02:14:03.538Z,15.55
2022-12-03T02:15:07.094Z,14.27
2022-12-03T02:16:10.351Z,14.88
2022-12-03T02:17:13.029Z,16.42
2022-12-03T02:18:16.013Z,16.60
2022-12-03T02:19:25.495Z,14.75
2022-12-03T02:20:28.763Z,17.40
2022-12-03T02:21:36.855Z,15.60
2022-12-03T02:22:45.588Z,16.30
2022-12-03T02:23:58.671Z,15.23
2022-12-03T02:25:15.311Z,13.63
2022-12-03T02:26:17.330Z,14.05
2022-12-03T02:27:20.489Z,14.95
2022-12-03T02:28:22.606Z,16.17
2022-12-03T02:29:25.762Z,15.32
2022-12-03T02:30:29.665Z,14.52
2022-12-03T02:31:33.148Z,15.65
2022-12-03T02:32:35.202Z,14.93
2022-12-03T02:33:38.304Z,16.63
2022-12-03T02:34:42.711Z,15.18
2022-12-03T02:35:46.249Z,16.10
2022-12-03T02:36:48.250Z,16.00
2022-12-03T02:37:53.911Z,17.58
2022-12-03T02:38:56.018Z,15.27
2022-12-03T02:40:03.064Z,14.15
2022-12-03T02:41:09.628Z,15.10
2022-12-03T02:42:30.550Z,15.55
2022-12-03T02:43:33.725Z,14.05
2022-12-03T02:44:35.917Z,16.13
2022-12-03T02:45:42.663Z,17.65
2022-12-03T02:46:44.770Z,16.15
2022-12-03T02:47:50.750Z,15.00
2022-12-03T02:48:52.903Z,15.60
2022-12-03T02:49:56.181Z,15.35
2022-12-03T02:51:00.384Z,14.50
2022-12-03T02:52:03.843Z,15.63
2022-12-03T02:53:10.489Z,14.73
2022-12-03T02:54:12.448Z,15.07
2022-12-03T02:55:17.125Z,15.57
2022-12-03T02:56:23.434Z,15.70
2022-12-03T02:57:26.449Z,16.17
2022-12-03T02:58:30.834Z,15.82
2022-12-03T02:59:33.993Z,15.70
2022-12-03T03:00:36.585Z,15.95
2022-12-03T03:01:39.877Z,17.08
2022-12-03T03:02:42.467Z,16.00
2022-12-03T03:03:46.516Z,16.40
2022-12-03T03:04:49.372Z,16.20
2022-12-03T03:05:52.772Z,16.33
2022-12-03T03:06:54.840Z,16.08
2022-12-03T03:08:00.380Z,16.30
2022-12-03T03:09:03.187Z,15.13
2022-12-03T03:10:08.827Z,15.10
2022-12-03T03:11:11.255Z,15.02
2022-12-03T03:12:15.631Z,15.85
2022-12-03T03:13:21.223Z,15.35
2022-12-03T03:14:24.242Z,15.98
2022-12-03T03:15:26.250Z,16.17
2022-12-03T03:16:29.304Z,16.48
2022-12-03T03:17:31.377Z,16.38
2022-12-03T03:18:34.584Z,15.45
2022-12-03T03:19:36.603Z,15.63
2022-12-03T03:20:40.433Z,16.15
2022-12-03T03:21:42.405Z,17.25
2022-12-03T03:22:45.335Z,16.13
2022-12-03T03:23:47.245Z,15.77
2022-12-03T03:24:50.311Z,15.90
2022-12-03T03:25:57.629Z,17.23
2022-12-03T03:27:00.582Z,16.70
2022-12-03T03:28:04.065Z,15.48
2022-12-03T03:29:07.004Z,15.50
2022-12-03T03:30:11.237Z,14.65
2022-12-03T03:31:17.678Z,15.57
2022-12-03T03:32:20.347Z,16.00
2022-12-03T03:33:23.464Z,16.33
2022-12-03T03:34:25.996Z,15.93
2022-12-03T03:35:29.534Z,16.08
2022-12-03T03:36:32.351Z,16.92
2022-12-03T03:37:36.145Z,14.00
2022-12-03T03:38:39.232Z,15.45
2022-12-03T03:39:42.325Z,16.70
2022-12-03T03:40:44.707Z,15.02
2022-12-03T03:41:48.064Z,16.42
2022-12-03T03:42:50.236Z,16.10
2022-12-03T03:43:54.874Z,15.55
2022-12-03T03:44:56.919Z,14.98
2022-12-03T03:46:00.137Z,15.52
2022-12-03T03:47:03.065Z,16.30
2022-12-03T03:48:06.637Z,15.77
2022-12-03T03:49:10.553Z,16.23
2022-12-03T03:50:15.228Z,15.50
2022-12-03T03:51:18.859Z,15.77
2022-12-03T03:52:22.152Z,15.18
2022-12-03T03:53:24.661Z,16.60
2022-12-03T03:54:27.828Z,17.50
2022-12-03T03:55:30.459Z,16.50
2022-12-03T03:56:34.532Z,14.95
2022-12-03T03:57:37.532Z,14.13
2022-12-03T03:58:40.583Z,15.20
2022-12-03T03:59:43.971Z,16.23
2022-12-03T04:00:48.473Z,14.55
2022-12-03T04:01:50.592Z,15.13
2022-12-03T04:02:53.861Z,16.30
2022-12-03T04:03:57.134Z,15.88
2022-12-03T04:05:00.213Z,15.10
2022-12-03T04:06:02.261Z,15.73
2022-12-03T04:07:05.213Z,14.98
2022-12-03T04:08:07.246Z,18.38
2022-12-03T04:09:10.233Z,15.85
2022-12-03T04:10:31.656Z,14.93
2022-12-03T04:11:52.149Z,15.63
2022-12-03T04:12:57.087Z,15.45
2022-12-03T04:13:59.987Z,14.55
2022-12-03T04:15:03.797Z,15.75
2022-12-03T04:16:07.063Z,16.25
2022-12-03T04:17:09.043Z,15.80
2022-12-03T04:18:29.204Z,14.88
2022-12-03T04:19:32.162Z,16.02
2022-12-03T04:20:34.192Z,16.35
2022-12-03T04:21:54.680Z,15.93
2022-12-03T04:22:56.575Z,16.30
2022-12-03T04:23:59.487Z,16.63
2022-12-03T04:25:16.357Z,16.23
2022-12-03T04:26:36.643Z,16.05
2022-12-03T04:27:59.596Z,14.75
2022-12-03T04:29:02.596Z,14.75
2022-12-03T04:30:06.965Z,16.25
2022-12-03T04:31:23.907Z,16.08
2022-12-03T04:32:44.186Z,14.95
2022-12-03T04:34:04.729Z,14.40
2022-12-03T04:35:25.541Z,15.35
2022-12-03T04:36:28.481Z,14.52
2022-12-03T04:37:31.472Z,15.80
2022-12-03T04:38:33.557Z,15.20
2022-12-03T04:39:36.532Z,14.13
2022-12-03T04:40:56.775Z,15.30
2022-12-03T04:41:59.667Z,16.75
2022-12-03T04:43:01.572Z,16.50
2022-12-03T04:44:22.304Z,15.63
2022-12-03T04:45:26.564Z,14.98
2022-12-03T04:46:28.624Z,15.35
2022-12-03T04:47:34.289Z,15.20
2022-12-03T04:48:40.381Z,15.85
2022-12-03T04:49:44.975Z,15.52
2022-12-03T04:50:46.969Z,14.82
2022-12-03T04:51:50.037Z,14.30
2022-12-03T04:52:52.061Z,16.30
2022-12-03T04:53:55.116Z,17.50
2022-12-03T04:54:58.088Z,15.07
2022-12-03T04:56:00.049Z,14.77
2022-12-03T04:57:03.460Z,15.85
2022-12-03T04:58:05.453Z,16.40
2022-12-03T04:59:14.178Z,14.82
2022-12-03T05:00:19.308Z,15.70
2022-12-03T05:01:22.873Z,14.98
2022-12-03T05:02:26.011Z,16.00
2022-12-03T05:03:28.010Z,16.63
2022-12-03T05:04:30.962Z,15.98
2022-12-03T05:05:32.894Z,13.68
2022-12-03T05:06:35.934Z,15.85
2022-12-03T05:07:38.065Z,14.32
2022-12-03T05:08:41.084Z,15.85
2022-12-03T05:09:44.112Z,13.38
2022-12-03T05:10:46.117Z,14.50
2022-12-03T05:11:49.108Z,14.70
2022-12-03T05:12:51.048Z,14.52
2022-12-03T05:13:54.067Z,14.95
2022-12-03T05:14:57.072Z,15.32
2022-12-03T05:15:59.045Z,14.93
2022-12-03T05:17:03.350Z,15.93
2022-12-03T05:18:05.460Z,13.50
2022-12-03T05:19:09.038Z,14.68
2022-12-03T05:20:30.629Z,15.40
2022-12-03T05:21:33.642Z,16.00
2022-12-03T05:22:35.658Z,14.43
2022-12-03T05:23:38.613Z,13.93
2022-12-03T05:24:40.585Z,13.40
2022-12-03T05:25:43.487Z,14.55
2022-12-03T05:26:45.476Z,14.45
2022-12-03T05:27:48.424Z,14.98
2022-12-03T05:28:50.555Z,15.68
2022-12-03T05:29:53.705Z,16.25
2022-12-03T05:30:55.734Z,15.75
2022-12-03T05:31:58.828Z,14.20
2022-12-03T05:33:02.175Z,14.00
2022-12-03T05:34:05.144Z,15.13
2022-12-03T05:35:07.564Z,15.02
2022-12-03T05:36:11.260Z,14.00
2022-12-03T05:37:13.260Z,15.00
2022-12-03T05:38:16.263Z,14.02
2022-12-03T05:39:18.184Z,14.95
2022-12-03T05:40:21.542Z,14.18
2022-12-03T05:41:42.125Z,13.55
2022-12-03T05:43:01.789Z,13.82
2022-12-03T05:44:04.821Z,13.80
2022-12-03T05:45:07.817Z,13.50
2022-12-03T05:46:10.774Z,12.82
2022-12-03T05:47:12.824Z,12.88
2022-12-03T05:48:18.630Z,16.42
2022-12-03T05:49:20.555Z,12.60
2022-12-03T05:50:27.266Z,14.05
2022-12-03T05:51:29.252Z,14.38
2022-12-03T05:52:32.193Z,15.05
2022-12-03T05:53:34.189Z,13.40
2022-12-03T05:54:37.111Z,14.25
2022-12-03T05:55:39.418Z,16.17
2022-12-03T05:56:42.343Z,13.98
2022-12-03T05:57:44.349Z,13.98
2022-12-03T05:58:47.271Z,13.98
2022-12-03T05:59:49.320Z,14.35
2022-12-03T06:00:52.243Z,12.82
2022-12-03T06:01:54.252Z,12.82
2022-12-03T06:02:57.938Z,13.52
2022-12-03T06:04:01.482Z,13.95
2022-12-03T06:05:04.697Z,14.73
2022-12-03T06:06:06.708Z,14.05
2022-12-03T06:07:13.750Z,11.82
2022-12-03T06:08:17.665Z,13.38
2022-12-03T06:09:19.743Z,11.95
2022-12-03T06:10:24.937Z,13.50
2022-12-03T06:11:26.949Z,11.98
2022-12-03T06:12:29.940Z,13.65
2022-12-03T06:13:32.931Z,16.00
2022-12-03T06:14:35.631Z,12.15
2022-12-03T06:15:43.490Z,14.32
2022-12-03T06:16:46.086Z,13.70
2022-12-03T06:17:49.338Z,13.02
2022-12-03T06:18:52.189Z,12.15
2022-12-03T06:19:56.488Z,13.98
2022-12-03T06:20:58.476Z,14.18
2022-12-03T06:22:01.450Z,14.27
2022-12-03T06:23:03.382Z,14.65
2022-12-03T06:24:06.828Z,14.05
2022-12-03T06:25:09.747Z,13.70
2022-12-03T06:26:13.172Z,12.60
2022-12-03T06:27:15.187Z,14.13
2022-12-03T06:28:18.143Z,14.20
2022-12-03T06:29:20.091Z,14.13
2022-12-03T06:30:23.022Z,11.43
2022-12-03T06:31:25.053Z,12.65
2022-12-03T06:32:28.060Z,14.48
2022-12-03T06:33:30.293Z,13.52
2022-12-03T06:34:33.361Z,12.75
2022-12-03T06:35:36.898Z,12.98
2022-12-03T06:36:39.933Z,13.00
2022-12-03T06:37:42.853Z,14.13
2022-12-03T06:38:44.825Z,14.63
2022-12-03T06:39:47.750Z,13.45
2022-12-03T06:40:49.693Z,13.50
2022-12-03T06:41:52.801Z,12.15
2022-12-03T06:42:55.708Z,13.52
2022-12-03T06:43:57.678Z,12.40
2022-12-03T06:45:00.632Z,12.52
2022-12-03T06:46:02.896Z,12.20
2022-12-03T06:47:05.920Z,12.55
2022-12-03T06:48:07.894Z,14.80
2022-12-03T06:49:10.865Z,13.27
2022-12-03T06:50:14.304Z,13.38
2022-12-03T06:51:17.704Z,12.15
2022-12-03T06:52:20.617Z,14.35
2022-12-03T06:53:22.627Z,12.63
2022-12-03T06:54:25.584Z,13.02
2022-12-03T06:55:27.492Z,13.10
2022-12-03T06:56:35.891Z,13.30
2022-12-03T06:57:40.917Z,13.25
2022-12-03T06:58:42.973Z,13.18
2022-12-03T06:59:45.924Z,13.80
2022-12-03T07:00:48.458Z,15.20
2022-12-03T07:01:51.447Z,15.95
2022-12-03T07:02:53.425Z,15.82
2022-12-03T07:03:56.425Z,15.77
2022-12-03T07:04:58.758Z,12.18
2022-12-03T07:06:01.936Z,14.35
2022-12-03T07:07:06.215Z,13.65
2022-12-03T07:08:08.173Z,13.77
2022-12-03T07:09:11.300Z,13.63
2022-12-03T07:10:14.779Z,14.20
2022-12-03T07:11:32.942Z,13.10
2022-12-03T07:12:35.899Z,14.20
2022-12-03T07:13:37.877Z,13.15
2022-12-03T07:14:41.048Z,13.25
2022-12-03T07:15:43.131Z,13.02
2022-12-03T07:16:46.153Z,12.70
2022-12-03T07:17:48.146Z,15.02
2022-12-03T07:18:51.377Z,15.52
2022-12-03T07:19:54.292Z,15.38
2022-12-03T07:20:56.257Z,15.68
2022-12-03T07:21:59.156Z,18.60
2022-12-03T07:23:02.416Z,14.35
2022-12-03T07:24:05.724Z,13.82
2022-12-03T07:25:09.933Z,13.80
2022-12-03T07:26:11.929Z,16.67
2022-12-03T07:27:14.876Z,18.90
2022-12-03T07:28:16.830Z,18.00
2022-12-03T07:29:19.824Z,16.95
2022-12-03T07:30:23.569Z,15.00
2022-12-03T07:31:26.563Z,13.65
2022-12-03T07:32:28.617Z,12.00
2022-12-03T07:33:31.628Z,11.63
2022-12-03T07:34:34.668Z,10.85
2022-12-03T07:35:36.646Z,11.20
2022-12-03T07:36:39.569Z,10.68
2022-12-03T07:37:41.546Z,11.50
2022-12-03T07:38:45.966Z,12.43
2022-12-03T07:39:47.872Z,11.38
2022-12-03T07:40:50.892Z,10.05
2022-12-03T07:41:52.863Z,10.95
2022-12-03T07:42:55.800Z,12.07
2022-12-03T07:43:57.855Z,12.52
2022-12-03T07:45:00.823Z,12.00
2022-12-03T07:46:02.850Z,12.02
2022-12-03T07:47:05.938Z,10.85
2022-12-03T07:48:08.099Z,11.68
2022-12-03T07:49:12.064Z,11.77
2022-12-03T07:50:14.212Z,11.23
2022-12-03T07:51:17.260Z,10.98
2022-12-03T07:52:19.209Z,11.32
2022-12-03T07:53:22.240Z,11.50
2022-12-03T07:54:26.116Z,12.70
2022-12-03T07:55:29.082Z,10.82
2022-12-03T07:56:32.147Z,10.20
2022-12-03T07:57:34.131Z,10.68
2022-12-03T07:58:37.069Z,11.55
2022-12-03T07:59:39.000Z,12.40
2022-12-03T08:00:42.022Z,11.85
2022-12-03T08:01:44.445Z,11.48
2022-12-03T08:02:47.564Z,11.18
2022-12-03T08:03:49.565Z,11.48
2022-12-03T08:04:52.838Z,12.68
2022-12-03T08:05:54.948Z,12.27
2022-12-03T08:06:57.837Z,12.25
2022-12-03T08:07:59.885Z,12.77
2022-12-03T08:09:02.842Z,11.80
2022-12-03T08:10:07.838Z,12.07
2022-12-03T08:11:14.837Z,11.85
2022-12-03T08:12:21.307Z,13.27
2022-12-03T08:13:24.281Z,11.23
2022-12-03T08:14:28.998Z,10.43
2022-12-03T08:15:36.883Z,13.13
2022-12-03T08:16:43.142Z,11.85
2022-12-03T08:17:46.955Z,11.45
2022-12-03T08:18:51.206Z,11.57
2022-12-03T08:19:53.658Z,11.82
2022-12-03T08:20:56.562Z,12.20
2022-12-03T08:22:01.550Z,12.65
2022-12-03T08:23:12.874Z,13.32
2022-12-03T08:24:17.677Z,12.05
2022-12-03T08:25:23.474Z,12.75
2022-12-03T08:26:29.193Z,11.98
2022-12-03T08:27:31.150Z,13.48
2022-12-03T08:28:34.105Z,13.27
2022-12-03T08:29:36.069Z,12.77
2022-12-03T08:30:39.089Z,12.93
2022-12-03T08:31:41.818Z,12.52
2022-12-03T08:32:45.373Z,13.00
2022-12-03T08:33:49.148Z,12.23
2022-12-03T08:34:52.421Z,12.43
2022-12-03T08:35:55.980Z,12.00
2022-12-03T08:37:01.769Z,13.02
2022-12-03T08:38:12.700Z,11.18
2022-12-03T08:39:30.750Z,11.50
2022-12-03T08:40:36.939Z,13.10
2022-12-03T08:41:57.460Z,11.95
2022-12-03T08:43:00.367Z,13.55
2022-12-03T08:44:14.753Z,12.90
2022-12-03T08:45:39.472Z,11.48
2022-12-03T08:46:42.713Z,12.75
2022-12-03T08:47:44.715Z,11.55
2022-12-03T08:48:49.408Z,13.13
2022-12-03T08:49:55.756Z,12.43
2022-12-03T08:51:00.413Z,12.55
2022-12-03T08:52:12.800Z,13.07
2022-12-03T08:53:28.498Z,12.85
2022-12-03T08:54:32.158Z,12.50
2022-12-03T08:55:37.650Z,12.15
2022-12-03T08:56:41.950Z,12.32
2022-12-03T08:57:43.980Z,13.32
2022-12-03T08:58:49.336Z,12.77
2022-12-03T08:59:55.313Z,12.48
2022-12-03T09:00:59.957Z,12.38
2022-12-03T09:02:03.343Z,12.43
2022-12-03T09:03:09.227Z,13.10
2022-12-03T09:04:25.231Z,12.52
2022-12-03T09:05:32.462Z,11.98
2022-12-03T09:06:34.431Z,12.60
2022-12-03T09:07:37.461Z,13.02
2022-12-03T09:08:39.460Z,13.13
2022-12-03T09:09:42.423Z,11.65
2022-12-03T09:10:45.781Z,11.80
2022-12-03T09:11:48.998Z,10.57
2022-12-03T09:12:51.084Z,12.10
2022-12-03T09:13:54.012Z,12.38
2022-12-03T09:14:56.988Z,11.77
2022-12-03T09:15:58.936Z,11.77
2022-12-03T09:17:01.978Z,14.00
2022-12-03T09:18:04.198Z,11.90
2022-12-03T09:19:07.287Z,13.10
2022-12-03T09:20:10.973Z,11.80
2022-12-03T09:21:12.925Z,13.15
2022-12-03T09:22:17.246Z,11.95
2022-12-03T09:23:19.224Z,11.65
2022-12-03T09:24:22.366Z,12.82
2022-12-03T09:25:24.356Z,11.07
2022-12-03T09:26:29.644Z,12.38
2022-12-03T09:27:32.617Z,10.10
2022-12-03T09:28:34.604Z,10.98
2022-12-03T09:29:37.531Z,12.77
2022-12-03T09:30:39.553Z,12.05
2022-12-03T09:31:42.642Z,11.18
2022-12-03T09:32:44.628Z,12.63
2022-12-03T09:33:47.569Z,10.98
2022-12-03T09:34:50.488Z,11.55
2022-12-03T09:35:52.718Z,12.52
2022-12-03T09:36:55.656Z,11.52
2022-12-03T09:37:57.559Z,12.15
2022-12-03T09:39:00.447Z,12.43
2022-12-03T09:40:02.433Z,12.98
2022-12-03T09:41:05.694Z,12.60
2022-12-03T09:42:11.354Z,12.32
2022-12-03T09:43:13.452Z,13.82
2022-12-03T09:44:18.208Z,15.10
2022-12-03T09:45:21.497Z,13.00
2022-12-03T09:46:23.626Z,12.27
2022-12-03T09:47:26.760Z,12.70
2022-12-03T09:48:28.823Z,11.55
2022-12-03T09:49:32.855Z,11.10
2022-12-03T09:50:39.513Z,12.38
2022-12-03T09:51:42.746Z,11.90
2022-12-03T09:52:45.445Z,12.48
2022-12-03T09:53:49.036Z,11.93
2022-12-03T09:54:50.960Z,13.65
2022-12-03T09:55:53.904Z,12.23
2022-12-03T09:57:01.245Z,13.43
2022-12-03T09:58:11.405Z,12.00
2022-12-03T09:59:15.308Z,11.88
2022-12-03T10:00:21.721Z,11.23
2022-12-03T10:01:29.916Z,12.60
2022-12-03T10:02:34.242Z,11.77
2022-12-03T10:03:38.672Z,12.55
2022-12-03T10:04:41.628Z,12.18
2022-12-03T10:05:48.078Z,13.07
2022-12-03T10:06:51.908Z,12.40
2022-12-03T10:07:55.252Z,11.43
2022-12-03T10:08:59.956Z,10.55
2022-12-03T10:10:03.060Z,11.43
2022-12-03T10:11:06.245Z,11.95
2022-12-03T10:12:12.742Z,12.48
2022-12-03T10:13:25.604Z,11.38
2022-12-03T10:14:29.381Z,11.15
2022-12-03T10:15:32.469Z,11.50
2022-12-03T10:16:37.076Z,10.68
2022-12-03T10:17:39.011Z,10.48
2022-12-03T10:18:44.885Z,11.15
2022-12-03T10:19:48.109Z,10.43
2022-12-03T10:20:52.181Z,10.73
2022-12-03T10:21:55.662Z,12.80
2022-12-03T10:22:58.625Z,10.05
2022-12-03T10:24:23.636Z,11.00
2022-12-03T10:25:26.592Z,11.52
2022-12-03T10:26:39.677Z,11.10
2022-12-03T10:27:43.187Z,9.57
2022-12-03T10:28:47.627Z,11.13
2022-12-03T10:29:58.588Z,11.82
2022-12-03T10:31:02.027Z,10.10
2022-12-03T10:32:07.832Z,12.05
2022-12-03T10:33:18.456Z,13.25
2022-12-03T10:34:26.144Z,10.75
2022-12-03T10:35:39.098Z,10.95
2022-12-03T10:36:42.057Z,10.60
2022-12-03T10:38:00.050Z,10.27
2022-12-03T10:39:14.386Z,11.52
2022-12-03T10:40:25.572Z,10.18
2022-12-03T10:41:28.945Z,12.25
2022-12-03T10:42:34.333Z,11.35
2022-12-03T10:43:36.281Z,10.98
2022-12-03T10:44:40.613Z,12.40
2022-12-03T10:45:44.448Z,12.90
2022-12-03T10:47:06.265Z,12.30
2022-12-03T10:48:13.969Z,10.90
2022-12-03T10:49:19.553Z,11.90
2022-12-03T10:50:21.530Z,12.07
2022-12-03T10:51:24.497Z,9.55
2022-12-03T10:52:26.563Z,10.75
2022-12-03T10:53:31.660Z,10.32
2022-12-03T10:54:35.816Z,10.70
2022-12-03T10:55:41.881Z,10.98
2022-12-03T10:56:44.785Z,12.10
2022-12-03T10:57:48.107Z,10.38
2022-12-03T10:58:51.283Z,9.82
2022-12-03T10:59:54.722Z,8.85
2022-12-03T11:00:59.593Z,9.95
2022-12-03T11:02:03.729Z,10.50
2022-12-03T11:03:18.018Z,10.52
2022-12-03T11:04:34.164Z,10.50
2022-12-03T11:05:36.108Z,9.35
2022-12-03T11:06:39.044Z,9.85
2022-12-03T11:07:42.414Z,9.80
2022-12-03T11:08:53.029Z,9.98
2022-12-03T11:10:01.017Z,10.55
2022-12-03T11:11:05.879Z,8.80
2022-12-03T11:12:17.096Z,8.82
2022-12-03T11:13:46.566Z,9.52
2022-12-03T11:15:16.254Z,9.45
2022-12-03T11:17:08.764Z,8.05
2022-12-03T11:18:10.697Z,8.52
2022-12-03T11:19:18.399Z,9.35
2022-12-03T11:21:10.058Z,8.95
2022-12-03T11:22:41.865Z,9.48
2022-12-03T11:24:18.619Z,8.35
2022-12-03T11:25:50.234Z,8.50
2022-12-03T11:27:23.123Z,7.85
2022-12-03T11:28:54.760Z,8.40
2022-12-03T11:30:01.910Z,8.20
2022-12-03T11:31:11.635Z,7.70
2022-12-03T11:33:04.967Z,8.65
2022-12-03T11:34:49.955Z,9.02
2022-12-03T11:36:16.059Z,8.02
2022-12-03T11:37:26.081Z,8.50
2022-12-03T11:38:47.382Z,9.32
2022-12-03T11:40:32.444Z,7.50
2022-12-03T11:41:39.311Z,7.88
2022-12-03T11:42:41.365Z,8.65
2022-12-03T11:44:22.152Z,8.60
2022-12-03T11:45:33.224Z,7.57
2022-12-03T11:46:43.696Z,8.20
2022-12-03T11:48:01.138Z,7.85
2022-12-03T11:49:18.819Z,8.63
2022-12-03T11:50:24.524Z,7.50
2022-12-03T11:51:29.734Z,7.75
2022-12-03T11:52:40.561Z,8.18
2022-12-03T11:53:43.752Z,8.25
2022-12-03T11:54:49.474Z,8.05
2022-12-03T11:56:06.122Z,8.52
2022-12-03T11:57:25.977Z,9.68
2022-12-03T11:58:31.136Z,8.73
2022-12-03T11:59:34.068Z,8.38
2022-12-03T12:00:36.964Z,7.78
2022-12-03T12:01:40.673Z,8.82
2022-12-03T12:02:43.727Z,7.85
2022-12-03T12:03:49.346Z,9.68
2022-12-03T12:04:51.477Z,9.27
2022-12-03T12:06:03.249Z,9.88
2022-12-03T12:07:07.584Z,8.55
2022-12-03T12:08:20.109Z,9.45
2022-12-03T12:09:52.436Z,10.73
2022-12-03T12:10:55.701Z,8.70
2022-12-03T12:12:19.315Z,8.13
2022-12-03T12:13:54.391Z,8.27
2022-12-03T12:14:57.046Z,9.70
2022-12-03T12:16:00.903Z,8.55
2022-12-03T12:17:03.617Z,8.35
2022-12-03T12:18:34.689Z,9.25
2022-12-03T12:19:54.572Z,8.90
2022-12-03T12:21:16.777Z,9.80
2022-12-03T12:22:30.803Z,9.48
2022-12-03T12:23:33.744Z,8.77
2022-12-03T12:24:46.848Z,9.13
2022-12-03T12:25:54.134Z,8.32
2022-12-03T12:26:57.436Z,8.57
2022-12-03T12:28:00.356Z,8.20
2022-12-03T12:29:02.331Z,8.70
2022-12-03T12:30:08.586Z,9.88
2022-12-03T12:31:11.472Z,10.73
2022-12-03T12:32:16.785Z,10.48
2022-12-03T12:33:23.837Z,10.00
2022-12-03T12:34:26.026Z,9.10
2022-12-03T12:35:32.687Z,7.90
2022-12-03T12:36:35.735Z,7.97
2022-12-03T12:37:53.504Z,8.05
2022-12-03T12:39:01.429Z,9.32
2022-12-03T12:40:12.854Z,8.55
2022-12-03T12:41:14.789Z,8.35
2022-12-03T12:42:33.556Z,8.50
2022-12-03T12:43:38.766Z,7.85
2022-12-03T12:44:41.222Z,9.85
2022-12-03T12:45:45.492Z,7.72
2022-12-03T12:46:48.746Z,9.45
2022-12-03T12:48:03.439Z,8.45
2022-12-03T12:49:11.791Z,7.70
2022-12-03T12:50:15.519Z,11.77
2022-12-03T12:51:19.698Z,8.73
2022-12-03T12:52:22.835Z,8.90
2022-12-03T12:53:28.805Z,8.48
2022-12-03T12:54:30.757Z,8.43
2022-12-03T12:55:33.655Z,7.97
2022-12-03T12:56:37.536Z,9.27
2022-12-03T12:57:39.503Z,8.75
2022-12-03T12:58:43.296Z,9.20
2022-12-03T12:59:45.299Z,8.48
2022-12-03T13:00:51.545Z,8.77
2022-12-03T13:01:54.623Z,8.60
2022-12-03T13:02:59.994Z,8.80
2022-12-03T13:04:07.917Z,8.68
2022-12-03T13:05:12.610Z,8.63
2022-12-03T13:06:17.099Z,8.13
2022-12-03T13:07:19.389Z,8.20
2022-12-03T13:08:27.599Z,8.50
2022-12-03T13:09:30.329Z,7.20
2022-12-03T13:10:37.695Z,7.28
2022-12-03T13:11:45.518Z,9.40
2022-12-03T13:12:47.431Z,8.15
2022-12-03T13:13:50.326Z,8.15
2022-12-03T13:14:55.075Z,7.68
2022-12-03T13:16:07.370Z,7.95
2022-12-03T13:17:16.874Z,8.13
2022-12-03T13:18:40.859Z,7.75
2022-12-03T13:19:49.388Z,7.95
2022-12-03T13:20:54.593Z,8.57
2022-12-03T13:22:01.108Z,8.13
2022-12-03T13:23:05.725Z,8.15
2022-12-03T13:24:29.722Z,7.70
2022-12-03T13:25:59.377Z,7.30
2022-12-03T13:27:03.432Z,7.95
2022-12-03T13:28:07.276Z,7.97
2022-12-03T13:29:15.040Z,7.45
2022-12-03T13:30:19.782Z,8.02
2022-12-03T13:31:26.084Z,8.27
2022-12-03T13:32:31.608Z,9.25
2022-12-03T13:33:34.664Z,7.65
2022-12-03T13:34:37.568Z,8.27
2022-12-03T13:35:41.889Z,8.05
2022-12-03T13:36:49.465Z,9.15
2022-12-03T13:37:56.432Z,8.38
2022-12-03T13:38:59.043Z,8.20
2022-12-03T13:40:18.018Z,7.25
2022-12-03T13:41:39.775Z,7.63
2022-12-03T13:42:42.762Z,7.97
2022-12-03T13:43:44.798Z,8.02
2022-12-03T13:44:50.380Z,8.10
2022-12-03T13:45:55.203Z,7.80
2022-12-03T13:46:57.321Z,8.35
2022-12-03T13:48:02.428Z,7.45
2022-12-03T13:49:13.753Z,8.30
2022-12-03T13:50:21.700Z,7.82
2022-12-03T13:51:27.168Z,7.97
2022-12-03T13:52:33.739Z,8.40
2022-12-03T13:53:38.543Z,7.93
2022-12-03T13:54:41.568Z,6.90
2022-12-03T13:55:47.490Z,9.10
2022-12-03T13:56:51.047Z,8.02
2022-12-03T13:57:53.089Z,7.40
2022-12-03T13:58:56.141Z,7.55
2022-12-03T13:59:58.137Z,7.70
2022-12-03T14:01:01.221Z,8.07
2022-12-03T14:02:03.366Z,7.10
2022-12-03T14:03:06.767Z,8.48
2022-12-03T14:04:08.688Z,7.68
2022-12-03T14:05:11.672Z,7.43
2022-12-03T14:06:14.399Z,7.55
2022-12-03T14:07:17.528Z,7.35
2022-12-03T14:08:19.541Z,7.07
2022-12-03T14:09:22.521Z,7.97